Time;durP1;ratioP1;P1;durP2;ratioP2;P2;SDS_P1;SDS_P2;PMS_P1;PMS_P2;Temp;Humidity;BMP_temperature;BMP_pressure;BME280_temperature;BME280_humidity;BME280_pressure;Samples;Min_cycle;Max_cycle;Signal;HPM_P1;HPM_P2
2021/08/26 00:00:25;;;;;;;8.23;3.77;;;19.80;99.90;;;;;;4958428;28;20251;-85
2021/08/26 00:05:48;;;;;;;5.57;3.57;;;19.80;99.90;;;;;;4975339;28;20234;-84
2021/08/26 00:08:22;;;;;;;7.80;3.67;;;19.80;99.90;;;;;;4950443;28;20680;-83
2021/08/26 00:10:49;;;;;;;8.63;4.00;;;19.80;99.90;;;;;;4970696;28;20618;-84
2021/08/26 00:13:15;;;;;;;5.87;4.00;;;19.70;99.90;;;;;;4957434;28;20203;-83
2021/08/26 00:15:43;;;;;;;7.10;4.33;;;19.60;99.90;;;;;;4982307;28;20266;-84
2021/08/26 00:18:09;;;;;;;6.40;3.57;;;19.60;99.90;;;;;;4954889;28;20209;-84
2021/08/26 00:20:35;;;;;;;7.77;4.73;;;19.60;99.90;;;;;;4947967;28;20246;-91
2021/08/26 00:23:01;;;;;;;6.23;3.73;;;19.60;99.90;;;;;;4953381;28;20176;-84
2021/08/26 00:25:27;;;;;;;10.50;4.40;;;19.60;99.90;;;;;;4950947;28;20194;-84
2021/08/26 00:27:53;;;;;;;10.83;4.53;;;19.70;99.90;;;;;;4954041;28;20250;-84
2021/08/26 00:30:20;;;;;;;7.80;4.17;;;19.70;99.90;;;;;;4980047;28;20191;-89
2021/08/26 00:32:46;;;;;;;6.77;4.10;;;19.80;99.90;;;;;;4978454;28;20214;-87
2021/08/26 00:35:11;;;;;;;10.00;4.33;;;19.80;99.90;;;;;;4978601;28;20196;-90
2021/08/26 00:37:37;;;;;;;8.83;4.33;;;19.70;99.90;;;;;;4965781;28;20183;-91
2021/08/26 00:40:03;;;;;;;7.97;4.40;;;19.70;99.90;;;;;;4959762;28;20266;-92
2021/08/26 00:42:29;;;;;;;8.13;3.87;;;19.70;99.90;;;;;;4953331;28;20238;-91
2021/08/26 00:44:55;;;;;;;9.53;4.57;;;19.60;99.90;;;;;;4955041;28;20181;-90
2021/08/26 00:47:25;;;;;;;7.13;3.87;;;19.70;99.90;;;;;;4955313;28;20214;-91
2021/08/26 00:49:52;;;;;;;9.20;4.13;;;19.70;99.90;;;;;;4958894;28;20266;-90
2021/08/26 00:52:18;;;;;;;7.23;4.57;;;19.70;99.90;;;;;;4978108;28;20215;-91
2021/08/26 00:54:44;;;;;;;6.83;3.70;;;19.60;99.90;;;;;;4951941;28;20264;-84
2021/08/26 00:57:09;;;;;;;8.07;4.37;;;19.70;99.90;;;;;;4950136;28;20610;-85
2021/08/26 00:59:35;;;;;;;8.13;4.53;;;19.70;99.90;;;;;;4944827;28;20242;-89
2021/08/26 01:02:09;;;;;;;7.90;4.77;;;19.60;99.90;;;;;;4987294;28;20217;-91
2021/08/26 01:04:52;;;;;;;11.90;4.43;;;19.60;99.90;;;;;;4953067;28;20671;-90
2021/08/26 01:07:30;;;;;;;7.10;4.27;;;19.70;99.90;;;;;;4972763;28;20194;-91
2021/08/26 01:10:04;;;;;;;6.33;4.23;;;19.60;99.90;;;;;;4957331;28;20234;-89
2021/08/26 01:12:30;;;;;;;7.47;4.07;;;19.60;99.90;;;;;;4982628;28;20194;-88
2021/08/26 01:14:56;;;;;;;6.33;4.00;;;19.50;99.90;;;;;;4957661;28;20183;-91
2021/08/26 01:17:27;;;;;;;7.70;4.57;;;19.60;99.90;;;;;;4956325;28;20183;-90
2021/08/26 01:19:53;;;;;;;7.63;4.10;;;19.70;99.90;;;;;;4957315;28;20219;-91
2021/08/26 01:22:20;;;;;;;8.43;4.80;;;19.60;99.90;;;;;;4958086;28;20214;-91
2021/08/26 01:24:53;;;;;;;11.27;4.90;;;19.50;99.90;;;;;;4947921;28;20274;-91
2021/08/26 01:27:19;;;;;;;12.63;5.10;;;19.40;99.90;;;;;;4972972;28;20206;-90
2021/08/26 01:29:48;;;;;;;8.40;5.20;;;19.40;99.90;;;;;;4946420;28;20694;-91
2021/08/26 01:32:20;;;;;;;12.33;5.73;;;19.40;99.90;;;;;;4956879;28;20171;-91
2021/08/26 01:34:47;;;;;;;11.30;6.40;;;19.20;99.90;;;;;;4951727;28;20621;-90
2021/08/26 01:37:17;;;;;;;12.00;6.90;;;19.10;99.90;;;;;;4948422;28;20193;-92
2021/08/26 01:39:50;;;;;;;13.03;6.40;;;19.00;99.90;;;;;;4957432;28;20296;-84
2021/08/26 01:42:16;;;;;;;7.87;6.17;;;19.00;99.90;;;;;;4932294;28;20186;-85
2021/08/26 01:44:42;;;;;;;9.10;6.60;;;19.00;99.90;;;;;;4956438;28;20568;-84
2021/08/26 01:47:16;;;;;;;13.07;7.13;;;18.90;99.90;;;;;;4982852;28;20184;-84
2021/08/26 01:49:49;;;;;;;9.33;6.43;;;19.00;99.90;;;;;;4961111;28;20182;-85
2021/08/26 01:52:17;;;;;;;9.40;6.77;;;18.90;99.90;;;;;;4960748;28;20199;-85
2021/08/26 01:55:09;;;;;;;11.93;7.53;;;18.80;99.90;;;;;;4959824;28;20279;-85
2021/08/26 01:57:34;;;;;;;10.07;7.10;;;18.80;99.90;;;;;;4957477;28;20180;-86
2021/08/26 02:00:03;;;;;;;11.53;7.47;;;18.70;99.90;;;;;;4959799;28;20212;-84
2021/08/26 02:02:37;;;;;;;9.93;6.93;;;18.60;99.90;;;;;;4977301;28;20246;-85
2021/08/26 02:05:04;;;;;;;9.83;6.80;;;18.60;99.90;;;;;;4960091;28;20197;-90
2021/08/26 02:07:29;;;;;;;10.00;6.77;;;18.60;99.90;;;;;;4947761;28;20187;-92
2021/08/26 02:09:55;;;;;;;9.13;5.93;;;18.60;99.90;;;;;;4960309;28;20185;-91
2021/08/26 02:12:21;;;;;;;11.13;6.10;;;18.70;99.90;;;;;;4956116;28;20199;-91
2021/08/26 02:14:46;;;;;;;10.23;5.87;;;18.80;99.90;;;;;;4958034;28;20649;-91
2021/08/26 02:17:12;;;;;;;8.80;6.67;;;18.80;99.90;;;;;;4954728;28;20250;-92
2021/08/26 02:19:37;;;;;;;7.07;5.17;;;18.90;99.90;;;;;;4956478;28;20274;-92
2021/08/26 02:22:03;;;;;;;6.80;5.03;;;19.00;99.90;;;;;;4960044;28;20559;-88
2021/08/26 02:24:29;;;;;;;7.03;5.30;;;19.00;99.90;;;;;;4959802;28;20270;-84
2021/08/26 02:26:54;;;;;;;8.10;5.60;;;19.10;99.90;;;;;;4944397;29;20209;-83
2021/08/26 02:29:20;;;;;;;8.43;5.50;;;19.20;99.90;;;;;;4954064;28;20182;-84
2021/08/26 02:31:46;;;;;;;6.70;4.70;;;19.30;99.90;;;;;;4943705;29;20222;-84
2021/08/26 02:34:11;;;;;;;7.53;5.73;;;19.20;99.90;;;;;;4951921;28;20273;-84
2021/08/26 02:36:37;;;;;;;8.47;6.00;;;19.00;99.90;;;;;;4957062;28;20186;-84
2021/08/26 02:39:03;;;;;;;9.60;5.80;;;19.10;99.90;;;;;;4960396;28;20178;-91
2021/08/26 02:41:28;;;;;;;9.97;6.13;;;18.90;99.90;;;;;;4958421;28;20302;-92
2021/08/26 02:43:54;;;;;;;9.13;5.93;;;18.80;99.90;;;;;;4959326;28;20636;-91
2021/08/26 02:46:20;;;;;;;9.30;6.90;;;18.60;99.90;;;;;;4958469;28;20288;-91
2021/08/26 02:48:45;;;;;;;12.50;6.50;;;18.60;99.90;;;;;;4957438;28;20183;-91
2021/08/26 02:51:11;;;;;;;10.60;6.83;;;18.50;99.90;;;;;;4959012;28;20183;-91
2021/08/26 02:53:36;;;;;;;7.87;6.33;;;18.60;99.90;;;;;;4956978;28;20612;-84
2021/08/26 02:56:02;;;;;;;8.37;6.30;;;18.60;99.90;;;;;;4959446;28;20199;-85
2021/08/26 02:58:28;;;;;;;8.10;6.07;;;18.60;99.90;;;;;;4956692;28;20289;-85
2021/08/26 03:00:53;;;;;;;8.43;5.33;;;18.70;99.90;;;;;;4954616;28;20182;-84
2021/08/26 03:03:19;;;;;;;9.33;6.20;;;18.70;99.90;;;;;;4981537;28;20187;-84
2021/08/26 03:05:44;;;;;;;7.13;5.43;;;18.70;99.90;;;;;;4973157;28;20211;-84
2021/08/26 03:08:10;;;;;;;6.87;5.67;;;18.80;99.90;;;;;;4976675;28;20195;-85
2021/08/26 03:10:36;;;;;;;8.57;5.03;;;18.90;99.90;;;;;;4959518;28;20186;-85
2021/08/26 03:13:03;;;;;;;8.53;5.37;;;18.90;99.90;;;;;;4951921;28;20205;-91
2021/08/26 03:15:28;;;;;;;8.63;5.50;;;19.00;99.90;;;;;;4976409;28;20632;-91
2021/08/26 03:17:54;;;;;;;8.77;6.00;;;19.00;99.90;;;;;;4951717;28;20184;-91
2021/08/26 03:20:20;;;;;;;6.53;5.53;;;19.10;99.90;;;;;;4951362;28;20648;-91
2021/08/26 03:22:47;;;;;;;8.70;6.27;;;19.00;99.90;;;;;;4976975;28;20187;-91
2021/08/26 03:25:12;;;;;;;7.73;5.87;;;19.10;99.90;;;;;;4976020;28;20236;-84
2021/08/26 03:27:38;;;;;;;10.20;6.43;;;19.00;99.90;;;;;;4958215;28;20230;-84
2021/08/26 03:30:05;;;;;;;7.83;5.87;;;18.90;99.90;;;;;;4958316;28;20190;-84
2021/08/26 03:32:31;;;;;;;8.67;6.50;;;18.90;99.90;;;;;;4986714;28;20209;-85
2021/08/26 03:34:57;;;;;;;7.40;5.87;;;19.00;99.90;;;;;;4959222;28;20686;-84
2021/08/26 03:37:22;;;;;;;6.27;5.67;;;19.00;99.90;;;;;;4957278;28;20185;-84
2021/08/26 03:39:48;;;;;;;6.00;4.60;;;18.90;99.90;;;;;;4977291;28;20683;-84
2021/08/26 03:42:13;;;;;;;4.33;3.63;;;18.90;99.90;;;;;;4957618;28;20218;-84
2021/08/26 03:44:39;;;;;;;4.97;3.13;;;18.90;99.90;;;;;;4974918;28;20187;-83
2021/08/26 03:47:04;;;;;;;7.07;4.27;;;19.00;99.90;;;;;;4957908;28;20194;-85
2021/08/26 03:49:30;;;;;;;7.13;4.33;;;19.00;99.90;;;;;;4958821;28;20178;-90
2021/08/26 03:51:56;;;;;;;6.10;3.67;;;19.00;99.90;;;;;;4945460;28;20194;-89
2021/08/26 03:54:22;;;;;;;4.60;3.33;;;18.80;99.90;;;;;;4958083;28;20707;-84
2021/08/26 03:56:48;;;;;;;8.00;3.20;;;18.70;99.90;;;;;;4955316;28;20188;-83
2021/08/26 03:59:14;;;;;;;5.97;3.10;;;18.80;99.90;;;;;;4945808;28;20217;-89
2021/08/26 04:01:40;;;;;;;8.07;3.60;;;18.80;99.90;;;;;;4975577;28;20189;-84
2021/08/26 04:04:05;;;;;;;5.40;2.83;;;18.70;99.90;;;;;;4955741;28;20191;-84
2021/08/26 04:06:31;;;;;;;10.27;3.30;;;18.70;99.90;;;;;;4957496;28;20524;-84
2021/08/26 04:08:56;;;;;;;6.43;2.93;;;18.70;99.90;;;;;;4956735;28;20188;-84
2021/08/26 04:11:22;;;;;;;7.23;2.93;;;18.80;99.90;;;;;;4952988;28;20216;-84
2021/08/26 04:13:48;;;;;;;7.10;3.00;;;18.90;99.90;;;;;;4945624;28;20224;-84
2021/08/26 04:16:14;;;;;;;8.87;2.83;;;19.00;99.90;;;;;;4958166;28;20222;-84
2021/08/26 04:18:39;;;;;;;8.57;3.23;;;18.90;99.90;;;;;;4954403;28;20189;-84
2021/08/26 04:21:05;;;;;;;7.50;2.57;;;18.80;99.90;;;;;;4957014;28;20180;-84
2021/08/26 04:23:31;;;;;;;9.77;2.53;;;18.80;99.90;;;;;;4956301;28;20192;-91
2021/08/26 04:25:57;;;;;;;8.73;3.13;;;19.00;99.90;;;;;;4953424;28;20192;-85
2021/08/26 04:28:23;;;;;;;5.53;2.80;;;19.20;99.90;;;;;;4955797;28;20616;-84
2021/08/26 04:30:49;;;;;;;6.70;2.50;;;19.00;99.90;;;;;;4969661;28;20184;-85
2021/08/26 04:33:15;;;;;;;8.43;2.90;;;19.10;99.90;;;;;;4957194;28;20587;-84
2021/08/26 04:35:42;;;;;;;8.97;2.23;;;18.90;99.90;;;;;;4958313;28;20273;-84
2021/08/26 04:38:07;;;;;;;6.67;2.87;;;19.00;99.90;;;;;;4963389;28;20191;-87
2021/08/26 04:40:33;;;;;;;6.80;2.63;;;19.00;99.90;;;;;;4975041;28;20193;-87
2021/08/26 04:42:59;;;;;;;8.87;2.60;;;18.80;99.90;;;;;;4971952;28;20203;-92
2021/08/26 04:45:24;;;;;;;7.37;2.63;;;18.80;99.90;;;;;;4957369;28;20560;-91
2021/08/26 04:47:50;;;;;;;5.57;2.50;;;19.00;99.90;;;;;;4970191;28;20180;-92
2021/08/26 04:50:15;;;;;;;6.50;2.83;;;19.00;99.90;;;;;;4947546;28;20635;-92
2021/08/26 04:52:42;;;;;;;12.90;3.37;;;19.00;99.90;;;;;;4943906;28;20194;-92
2021/08/26 04:55:08;;;;;;;15.20;3.30;;;19.00;99.90;;;;;;4955106;28;20671;-84
2021/08/26 04:57:33;;;;;;;7.87;3.40;;;18.80;99.90;;;;;;4952216;28;20195;-88
2021/08/26 04:59:59;;;;;;;11.23;3.80;;;18.70;99.90;;;;;;4957009;28;20202;-92
2021/08/26 05:02:25;;;;;;;9.57;3.43;;;18.60;99.90;;;;;;4956667;28;20191;-91
2021/08/26 05:04:50;;;;;;;7.43;3.33;;;18.70;99.90;;;;;;4957417;28;20178;-89
2021/08/26 05:07:16;;;;;;;6.60;3.80;;;18.60;99.90;;;;;;4957079;28;20189;-91
2021/08/26 05:09:41;;;;;;;6.83;3.47;;;18.50;99.90;;;;;;4973835;28;20190;-91
2021/08/26 05:12:08;;;;;;;10.93;4.60;;;18.60;99.90;;;;;;4957379;28;20195;-84
2021/08/26 05:14:34;;;;;;;9.87;4.00;;;18.60;99.90;;;;;;4957028;28;20273;-83
2021/08/26 05:17:00;;;;;;;7.43;3.90;;;18.60;99.90;;;;;;4956660;28;20200;-83
2021/08/26 05:19:26;;;;;;;11.00;3.43;;;18.60;99.90;;;;;;4953088;28;20184;-84
2021/08/26 05:21:52;;;;;;;17.47;4.10;;;18.50;99.90;;;;;;4955537;28;20186;-82
2021/08/26 05:24:17;;;;;;;7.40;3.33;;;18.50;99.90;;;;;;4955738;28;20213;-85
2021/08/26 05:26:43;;;;;;;13.53;3.77;;;18.60;99.90;;;;;;4955729;28;20682;-84
2021/08/26 05:29:10;;;;;;;10.53;3.30;;;18.60;99.90;;;;;;4947676;28;20547;-91
2021/08/26 05:31:36;;;;;;;8.33;3.30;;;18.70;99.90;;;;;;4959698;28;20186;-91
2021/08/26 05:34:02;;;;;;;9.93;3.30;;;18.70;99.90;;;;;;4961863;28;20201;-92
2021/08/26 05:36:29;;;;;;;7.83;3.57;;;18.60;99.90;;;;;;4960082;28;20246;-91
2021/08/26 05:38:55;;;;;;;14.33;3.33;;;18.70;99.90;;;;;;4957878;28;20172;-92
2021/08/26 05:41:20;;;;;;;15.03;4.10;;;18.60;99.90;;;;;;4960905;28;20651;-92
2021/08/26 05:43:46;;;;;;;9.07;3.20;;;18.60;99.90;;;;;;4958482;28;20179;-92
2021/08/26 05:46:17;;;;;;;15.30;3.70;;;18.70;99.90;;;;;;4956048;28;20555;-93
2021/08/26 05:48:43;;;;;;;14.80;3.53;;;18.70;99.90;;;;;;4959755;28;20266;-93
2021/08/26 05:51:11;;;;;;;17.93;3.87;;;18.70;99.90;;;;;;4958277;28;20217;-91
2021/08/26 05:54:04;;;;;;;10.77;3.40;;;18.60;99.90;;;;;;4957750;28;20214;-92
2021/08/26 05:56:44;;;;;;;7.77;3.03;;;18.60;99.90;;;;;;4959145;28;20228;-93
2021/08/26 05:59:48;;;;;;;12.07;3.47;;;18.60;99.90;;;;;;4973915;28;20179;-92
2021/08/26 06:09:07;;;;;;;11.10;3.40;;;18.70;99.90;;;;;;4896737;29;20185;-93
2021/08/26 06:11:49;;;;;;;10.90;3.63;;;18.70;99.90;;;;;;4943828;28;20193;-93
2021/08/26 06:14:17;;;;;;;11.50;3.20;;;18.90;99.90;;;;;;4958782;28;20235;-94
2021/08/26 06:16:57;;;;;;;11.00;3.53;;;18.90;99.90;;;;;;4955790;28;20186;-93
2021/08/26 06:19:55;;;;;;;;;;;;;;;;;;;;;
2021/08/26 06:22:25;;;;;;;10.27;3.57;;;18.90;99.90;;;;;;4972593;28;20183;-92
2021/08/26 06:25:06;;;;;;;12.80;4.67;;;18.90;99.90;;;;;;4956626;28;20228;-92
2021/08/26 06:27:59;;;;;;;;;;;;;;;;;;;;;
2021/08/26 06:31:47;;;;;;;;;;;;;;;;;;;;;
2021/08/26 06:53:44;;;;;;;;;;;;;;;;;;;;;
2021/08/26 07:00:46;;;;;;;;;;;;;;;;;;;;;
2021/08/26 07:45:18;;;;;;;14.63;3.37;;;19.10;99.90;;;;;;4710143;30;20262;-92
2021/08/26 07:48:23;;;;;;;;;;;;;;;;;;;;;
2021/08/26 07:51:02;;;;;;;10.20;3.40;;;19.00;99.90;;;;;;4764661;30;20198;-93
2021/08/26 07:57:51;;;;;;;;;;;;;;;;;;;;;
2021/08/26 08:00:53;;;;;;;14.27;3.60;;;19.40;99.90;;;;;;4862231;29;20204;-96
2021/08/26 08:07:41;;;;;;;;;;;;;;;;;;;;;
2021/08/26 08:10:52;;;;;;;;;;;;;;;;;;;;;
2021/08/26 08:13:58;;;;;;;;;;;;;;;;;;;;;
2021/08/26 08:22:57;;;;;;;;;;;;;;;;;;;;;
2021/08/26 08:33:19;;;;;;;9.87;2.73;;;20.10;99.90;;;;;;4959286;28;20187;-92
2021/08/26 08:35:48;;;;;;;12.47;2.60;;;19.90;99.90;;;;;;4951662;28;20192;-92
2021/08/26 08:38:21;;;;;;;8.47;2.40;;;19.60;99.90;;;;;;4958871;28;20179;-92
2021/08/26 08:41:33;;;;;;;;;;;;;;;;;;;;;
2021/08/26 08:44:44;;;;;;;;;;;;;;;;;;;;;
2021/08/26 09:05:25;;;;;;;;;;;;;;;;;;;;;
2021/08/26 09:08:18;;;;;;;12.97;2.83;;;20.10;99.90;;;;;;4964232;28;20251;-94
2021/08/26 09:10:59;;;;;;;;;;;;;;;;;;;;;
2021/08/26 09:14:04;;;;;;;;;;;;;;;;;;;;;
2021/08/26 09:17:02;;;;;;;13.90;3.00;;;20.00;99.90;;;;;;4958993;28;20255;-93
2021/08/26 09:25:58;;;;;;;11.97;2.97;;;19.60;99.90;;;;;;4914396;28;20187;-94
2021/08/26 09:32:18;;;;;;;;;;;;;;;;;;;;;
2021/08/26 10:25:37;;;;;;;7.83;1.70;;;20.90;99.90;;;;;;4775187;29;20193;-92
2021/08/26 10:28:37;;;;;;;8.03;1.47;;;20.80;99.90;;;;;;4823838;29;20235;-93
2021/08/26 10:35:25;;;;;;;5.47;1.40;;;20.80;99.90;;;;;;4881503;29;20209;-93
2021/08/26 10:38:56;;;;;;;;;;;;;;;;;;;;;
2021/08/26 10:46:03;;;;;;;5.50;1.33;;;21.80;98.50;;;;;;4933399;28;20258;-94
2021/08/26 10:49:18;;;;;;;;;;;;;;;;;;;;;
2021/08/26 10:52:27;;;;;;;4.63;1.23;;;21.80;98.00;;;;;;4978338;28;20185;-92
2021/08/26 10:58:34;;;;;;;;;;;;;;;;;;;;;
2021/08/26 11:01:29;;;;;;;4.53;1.50;;;21.30;99.20;;;;;;4959423;28;20196;-93
2021/08/26 11:04:37;;;;;;;;;;;;;;;;;;;;;
2021/08/26 11:10:42;;;;;;;7.37;1.37;;;20.80;99.90;;;;;;4931932;28;20224;-93
2021/08/26 11:13:50;;;;;;;4.77;1.40;;;20.50;99.90;;;;;;4950409;28;20193;-95
2021/08/26 11:20:13;;;;;;;;;;;;;;;;;;;;;
2021/08/26 11:23:18;;;;;;;9.13;2.37;;;20.60;99.90;;;;;;4937933;29;20190;-93
2021/08/26 11:25:46;;;;;;;7.67;2.13;;;20.40;99.90;;;;;;4944329;28;20186;-92
2021/08/26 11:28:32;;;;;;;6.60;1.77;;;20.00;99.90;;;;;;4950837;28;20197;-92
2021/08/26 11:31:21;;;;;;;5.53;1.43;;;19.50;99.90;;;;;;4944820;28;20177;-92
2021/08/26 11:34:17;;;;;;;;;;;;;;;;;;;;;
2021/08/26 11:41:21;;;;;;;;;;;;;;;;;;;;;
2021/08/26 11:50:51;;;;;;;;;;;;;;;;;;;;;
2021/08/26 11:54:49;;;;;;;;;;;;;;;;;;;;;
2021/08/26 12:11:06;;;;;;;5.30;0.90;;;24.30;95.40;;;;;;4963570;28;20183;-92
2021/08/26 12:17:40;;;;;;;3.73;0.90;;;23.10;97.00;;;;;;4949346;28;20179;-92
2021/08/26 12:20:34;;;;;;;5.53;1.17;;;22.20;98.20;;;;;;4948015;28;20277;-92
2021/08/26 12:23:51;;;;;;;;;;;;;;;;;;;;;
2021/08/26 12:29:32;;;;;;;6.33;0.90;;;21.40;99.50;;;;;;4959865;28;20189;-92
2021/08/26 12:32:39;;;;;;;;;;;;;;;;;;;;;
2021/08/26 12:35:47;;;;;;;;;;;;;;;;;;;;;
2021/08/26 12:38:39;;;;;;;4.17;1.47;;;21.00;99.90;;;;;;4958350;28;20630;-93
2021/08/26 12:41:23;;;;;;;3.87;1.47;;;20.80;99.90;;;;;;4950793;28;20215;-91
2021/08/26 12:44:12;;;;;;;3.60;1.10;;;20.60;99.90;;;;;;4955317;28;20192;-92
2021/08/26 12:46:43;;;;;;;3.97;1.13;;;20.40;99.90;;;;;;4972767;28;20185;-92
2021/08/26 12:49:47;;;;;;;2.40;0.97;;;20.40;99.90;;;;;;4984412;28;20227;-92
2021/08/26 12:52:19;;;;;;;3.10;1.13;;;20.40;99.90;;;;;;4959940;28;20182;-95
2021/08/26 12:54:57;;;;;;;6.00;1.40;;;20.50;99.90;;;;;;4957978;28;20249;-92
2021/08/26 12:57:24;;;;;;;2.80;1.23;;;20.50;99.90;;;;;;4958416;29;20721;-94
2021/08/26 13:00:04;;;;;;;7.53;1.40;;;20.20;99.90;;;;;;4964114;28;20193;-93
2021/08/26 13:02:57;;;;;;;5.10;1.20;;;20.30;99.90;;;;;;4948503;28;20189;-95
2021/08/26 13:05:23;;;;;;;4.63;1.80;;;20.50;99.90;;;;;;4956029;28;20197;-92
2021/08/26 13:08:30;;;;;;;3.50;1.30;;;20.60;99.90;;;;;;4956625;28;20205;-93
2021/08/26 13:18:08;;;;;;;3.70;1.20;;;21.40;99.90;;;;;;4924416;29;20209;-93
2021/08/26 13:21:14;;;;;;;;;;;;;;;;;;;;;
2021/08/26 13:24:36;;;;;;;;;;;;;;;;;;;;;
2021/08/26 13:31:29;;;;;;;4.00;1.30;;;22.00;99.20;;;;;;4920897;28;20203;-95
2021/08/26 13:33:57;;;;;;;4.50;1.93;;;21.60;99.60;;;;;;4959270;28;20214;-93
2021/08/26 13:36:57;;;;;;;6.10;1.57;;;21.30;99.90;;;;;;4961563;28;20208;-96
2021/08/26 13:39:24;;;;;;;4.73;1.60;;;21.10;99.90;;;;;;4957178;28;20197;-91
2021/08/26 13:42:18;;;;;;;7.77;1.40;;;20.70;99.90;;;;;;4956507;28;20648;-95
2021/08/26 13:44:54;;;;;;;;;;;;;;;;;;;;;
2021/08/26 13:47:21;;;;;;;3.97;1.47;;;20.70;99.90;;;;;;4964505;28;20725;-96
2021/08/26 13:49:47;;;;;;;4.53;1.87;;;20.50;99.90;;;;;;4959683;28;20189;-95
2021/08/26 13:52:12;;;;;;;5.43;1.73;;;20.20;99.90;;;;;;4960593;28;20289;-93
2021/08/26 13:54:49;;;;;;;10.73;1.90;;;20.10;99.90;;;;;;4960285;28;20244;-95
2021/08/26 13:57:20;;;;;;;6.50;1.90;;;20.20;99.90;;;;;;4960231;28;20698;-94
2021/08/26 13:59:48;;;;;;;6.87;2.20;;;20.40;99.90;;;;;;4960415;28;20186;-93
2021/08/26 14:02:22;;;;;;;4.17;2.23;;;20.40;99.90;;;;;;4962103;28;20178;-93
2021/08/26 14:05:38;;;;;;;;;;;;;;;;;;;;;
2021/08/26 14:08:22;;;;;;;7.60;2.57;;;20.70;99.90;;;;;;4961109;28;20293;-95
2021/08/26 14:11:13;;;;;;;5.23;2.00;;;21.20;99.90;;;;;;4957761;28;20183;-93
2021/08/26 14:13:39;;;;;;;4.77;2.03;;;22.30;99.90;;;;;;4958856;28;20219;-81
2021/08/26 14:16:04;;;;;;;7.40;2.30;;;22.80;99.20;;;;;;4957561;28;20270;-81
2021/08/26 14:18:30;;;;;;;7.83;2.70;;;23.10;98.80;;;;;;4957683;28;20206;-84
2021/08/26 14:20:56;;;;;;;4.90;2.17;;;23.30;98.50;;;;;;4956691;28;20532;-79
2021/08/26 14:23:22;;;;;;;4.37;1.93;;;23.40;98.60;;;;;;4957697;28;20238;-80
2021/08/26 14:25:48;;;;;;;6.23;2.27;;;23.50;97.70;;;;;;4957353;28;20187;-78
2021/08/26 14:28:13;;;;;;;9.77;2.77;;;23.90;97.70;;;;;;4955986;28;20180;-78
2021/08/26 14:30:39;;;;;;;4.83;1.97;;;25.10;95.50;;;;;;4957807;28;20260;-79
2021/08/26 14:33:05;;;;;;;6.60;1.80;;;25.20;94.90;;;;;;4955668;28;20183;-78
2021/08/26 14:35:30;;;;;;;6.97;2.10;;;24.90;95.40;;;;;;4957068;28;20187;-79
2021/08/26 14:37:56;;;;;;;5.17;1.90;;;25.10;95.30;;;;;;4956619;28;20694;-78
2021/08/26 14:40:22;;;;;;;10.63;2.70;;;25.00;95.20;;;;;;4957277;28;20655;-78
2021/08/26 14:42:48;;;;;;;5.63;2.10;;;24.50;95.70;;;;;;4952593;28;20657;-78
2021/08/26 14:45:13;;;;;;;7.53;1.97;;;24.50;95.30;;;;;;4957102;28;20187;-78
2021/08/26 14:47:39;;;;;;;7.17;2.13;;;24.20;95.30;;;;;;4955879;28;20191;-78
2021/08/26 14:50:05;;;;;;;6.83;2.37;;;24.10;96.00;;;;;;4970013;28;20180;-78
2021/08/26 14:52:31;;;;;;;6.20;2.13;;;23.60;96.00;;;;;;4954776;28;20207;-78
2021/08/26 14:54:56;;;;;;;8.67;2.20;;;23.30;96.60;;;;;;4954563;28;20254;-79
2021/08/26 14:57:22;;;;;;;11.90;2.57;;;23.40;96.50;;;;;;4955327;28;20191;-78
2021/08/26 14:59:48;;;;;;;10.43;3.20;;;23.60;96.50;;;;;;4954809;28;20191;-78
2021/08/26 15:02:14;;;;;;;7.73;2.60;;;23.70;96.00;;;;;;4954932;28;20179;-79
2021/08/26 15:04:40;;;;;;;8.03;2.90;;;23.50;96.50;;;;;;4953457;28;20195;-79
2021/08/26 15:07:06;;;;;;;7.77;3.07;;;23.90;95.80;;;;;;4956293;28;20195;-78
2021/08/26 15:09:32;;;;;;;8.20;2.97;;;24.10;95.70;;;;;;4955517;28;20675;-79
2021/08/26 15:11:57;;;;;;;9.97;3.10;;;23.80;95.90;;;;;;4954017;28;20171;-79
2021/08/26 15:14:23;;;;;;;12.27;2.67;;;23.60;96.40;;;;;;4956487;28;20603;-79
2021/08/26 15:16:48;;;;;;;10.63;2.90;;;23.60;96.30;;;;;;4955836;28;20560;-78
2021/08/26 15:19:14;;;;;;;6.53;2.90;;;23.60;96.50;;;;;;4956230;28;20572;-78
2021/08/26 15:21:40;;;;;;;6.90;3.00;;;23.30;96.80;;;;;;4956819;28;20582;-78
2021/08/26 15:24:07;;;;;;;15.50;3.57;;;23.00;97.30;;;;;;4955219;28;20233;-78
2021/08/26 15:26:33;;;;;;;8.63;3.03;;;22.80;97.70;;;;;;4956337;28;20676;-78
2021/08/26 15:28:58;;;;;;;10.47;3.43;;;22.80;97.70;;;;;;4956829;28;20238;-78
2021/08/26 15:31:24;;;;;;;8.87;2.93;;;23.00;97.80;;;;;;4959086;28;20190;-79
2021/08/26 15:33:51;;;;;;;11.27;3.00;;;23.40;97.40;;;;;;4965571;28;20218;-79
2021/08/26 15:36:17;;;;;;;7.83;2.67;;;23.40;97.10;;;;;;4955042;28;20183;-85
2021/08/26 15:38:43;;;;;;;7.67;2.57;;;23.40;96.10;;;;;;4955062;28;20185;-80
2021/08/26 15:41:10;;;;;;;9.07;2.87;;;23.40;96.10;;;;;;4953274;28;20238;-78
2021/08/26 15:43:36;;;;;;;7.33;2.70;;;23.90;96.20;;;;;;4954958;28;20198;-79
2021/08/26 15:46:01;;;;;;;7.30;2.53;;;24.60;95.40;;;;;;4953969;28;20550;-78
2021/08/26 15:48:27;;;;;;;9.30;3.07;;;24.50;95.10;;;;;;4956128;28;20270;-79
2021/08/26 15:50:53;;;;;;;11.87;3.17;;;24.20;95.60;;;;;;4953209;28;20691;-79
2021/08/26 15:53:28;;;;;;;10.97;2.97;;;24.00;95.70;;;;;;4955033;28;20235;-80
2021/08/26 15:55:54;;;;;;;9.30;2.57;;;23.60;95.60;;;;;;4953301;28;20655;-83
2021/08/26 15:58:38;;;;;;;11.47;2.83;;;23.20;96.30;;;;;;4958030;28;20210;-83
2021/08/26 16:01:29;;;;;;;7.23;2.73;;;22.90;97.00;;;;;;4959534;28;20195;-85
2021/08/26 16:03:50;;;;;;;11.83;3.40;;;22.00;97.60;;;;;;4954806;28;20186;-78
2021/08/26 16:06:17;;;;;;;9.90;3.30;;;21.70;98.10;;;;;;4953310;28;20660;-82
2021/08/26 16:08:43;;;;;;;15.83;4.13;;;21.20;98.90;;;;;;4953656;28;20183;-85
2021/08/26 16:11:10;;;;;;;12.50;3.50;;;21.00;99.70;;;;;;4952827;28;20190;-84
2021/08/26 16:13:36;;;;;;;13.53;3.87;;;21.00;99.90;;;;;;4954848;28;20206;-78
2021/08/26 16:16:02;;;;;;;12.70;3.30;;;21.10;99.90;;;;;;4955473;28;20199;-80
2021/08/26 16:18:28;;;;;;;12.07;4.13;;;21.20;99.90;;;;;;4953596;28;20262;-78
2021/08/26 16:20:55;;;;;;;12.43;3.87;;;20.90;99.90;;;;;;4955949;28;20232;-78
2021/08/26 16:23:22;;;;;;;13.20;4.03;;;20.80;99.90;;;;;;4951168;28;20292;-79
2021/08/26 16:25:48;;;;;;;12.63;3.73;;;20.80;99.90;;;;;;4952641;28;20213;-81
2021/08/26 16:28:14;;;;;;;11.30;3.20;;;20.80;99.90;;;;;;4954625;28;20643;-83
2021/08/26 16:30:41;;;;;;;15.43;3.43;;;20.90;99.90;;;;;;4955313;28;20274;-79
2021/08/26 16:33:07;;;;;;;13.27;3.63;;;21.10;99.90;;;;;;4955338;28;20180;-78
2021/08/26 16:35:34;;;;;;;11.03;3.47;;;21.40;99.90;;;;;;4955206;28;20187;-85
2021/08/26 16:38:00;;;;;;;18.93;4.10;;;21.70;99.90;;;;;;4955689;28;20183;-81
2021/08/26 16:40:26;;;;;;;12.80;3.03;;;22.00;99.50;;;;;;4957413;28;20533;-82
2021/08/26 16:42:52;;;;;;;9.43;2.80;;;22.30;98.70;;;;;;4967817;28;20210;-81
2021/08/26 16:45:19;;;;;;;8.93;3.10;;;22.60;97.90;;;;;;4953811;28;20210;-79
2021/08/26 16:47:46;;;;;;;9.03;2.30;;;23.00;97.20;;;;;;4954287;28;20183;-77
2021/08/26 16:50:15;;;;;;;8.90;2.10;;;23.70;96.10;;;;;;4954911;28;20598;-81
2021/08/26 16:52:41;;;;;;;15.23;3.17;;;24.40;95.20;;;;;;4957701;28;20188;-82
2021/08/26 16:55:08;;;;;;;8.83;2.57;;;24.40;94.60;;;;;;4956264;28;20310;-79
2021/08/26 16:57:34;;;;;;;12.37;3.27;;;24.00;95.00;;;;;;4953957;28;20187;-83
2021/08/26 17:00:00;;;;;;;9.67;3.00;;;23.70;95.30;;;;;;4954411;28;20183;-84
2021/08/26 17:02:26;;;;;;;8.67;3.10;;;23.30;95.60;;;;;;4954744;28;20179;-84
2021/08/26 17:04:52;;;;;;;11.50;2.77;;;22.80;96.40;;;;;;4954892;28;20667;-84
2021/08/26 17:07:18;;;;;;;10.93;3.67;;;22.50;97.00;;;;;;4940940;28;20198;-82
2021/08/26 17:09:43;;;;;;;9.93;3.70;;;22.10;97.70;;;;;;4954248;28;20199;-81
2021/08/26 17:12:09;;;;;;;21.03;4.27;;;22.00;97.80;;;;;;4954955;28;20183;-82
2021/08/26 17:14:36;;;;;;;12.50;4.13;;;21.90;98.10;;;;;;4954610;28;20245;-84
2021/08/26 17:17:02;;;;;;;10.60;3.80;;;21.40;98.70;;;;;;4953547;28;20178;-80
2021/08/26 17:19:27;;;;;;;13.77;4.17;;;21.20;99.50;;;;;;4955208;28;20193;-79
2021/08/26 17:21:53;;;;;;;10.77;4.00;;;21.10;99.90;;;;;;4953593;28;20662;-78
2021/08/26 17:24:20;;;;;;;14.93;3.70;;;20.90;99.90;;;;;;4954134;28;20545;-82
2021/08/26 17:26:46;;;;;;;13.57;4.30;;;20.90;99.90;;;;;;4955202;28;20233;-83
2021/08/26 17:29:11;;;;;;;16.23;4.27;;;20.80;99.90;;;;;;4952553;28;20183;-80
2021/08/26 17:31:37;;;;;;;16.80;4.60;;;20.80;99.90;;;;;;4954276;28;20586;-80
2021/08/26 17:34:03;;;;;;;11.97;4.60;;;20.70;99.90;;;;;;4952403;28;20217;-83
2021/08/26 17:36:28;;;;;;;12.03;4.13;;;20.40;99.90;;;;;;4952596;28;20195;-82
2021/08/26 17:38:54;;;;;;;19.97;5.33;;;20.20;99.90;;;;;;4953998;28;20193;-79
2021/08/26 17:41:20;;;;;;;16.07;4.70;;;20.10;99.90;;;;;;4952516;28;20197;-78
2021/08/26 17:43:45;;;;;;;17.40;5.23;;;20.10;99.90;;;;;;4962281;28;20191;-81
2021/08/26 17:46:11;;;;;;;14.70;4.63;;;20.30;99.90;;;;;;4958756;28;20272;-80
2021/08/26 17:48:36;;;;;;;16.53;5.03;;;20.20;99.90;;;;;;4953589;28;20182;-80